Big Rapids, Michigan
Current Conditions -  °F | °C
As of 12:14 AM on Sunday 26 Oct 2014 (Local Time) from KRQB Reporting Station
Clear Clear  
Wind Chill:   Ceiling: Unl
Heat Index: 10°   Visibility: 10mi
Dew Point:   Wind: 6mph
Humidity: 61%   Direction: 280°W
Pressure: 29.86"   Gusts: NA
Location:  43.7°N, 85.48°W
Report Text: KRQB 260414Z AUTO 28005KT 10SM CLR 10/03 A2986 RMK AO2 T00960025
Loading
Personal Weather Stations






























Interactive Weather Map
Tropical Storm Tracking
New forecast layout! Learn more

10-Day Weather Forecast

Advertisements
Track Severe Weather on mobile